Time;durP1;ratioP1;P1;durP2;ratioP2;P2;SDS_P1;SDS_P2;PMS_P1;PMS_P2;Temp;Humidity;BMP_temperature;BMP_pressure;BME280_temperature;BME280_humidity;BME280_pressure;Samples;Min_cycle;Max_cycle;Signal;HPM_P1;HPM_P2
2023/03/23 00:01:19;;;;;;;10.50;7.80;;;11.90;88.00;;;;;;5080549;28;20040;-76
2023/03/23 00:03:47;;;;;;;14.00;7.50;;;11.90;87.90;;;;;;5064142;28;20046;-76
2023/03/23 00:06:16;;;;;;;10.00;6.43;;;11.90;88.00;;;;;;5080516;28;20039;-76
2023/03/23 00:08:47;;;;;;;11.55;7.25;;;11.90;87.70;;;;;;5048033;28;20039;-77
2023/03/23 00:11:21;;;;;;;10.55;7.03;;;11.90;87.70;;;;;;5096992;28;20040;-76
2023/03/23 00:13:53;;;;;;;11.13;7.38;;;11.90;87.60;;;;;;5080020;28;20498;-77
2023/03/23 00:16:28;;;;;;;9.73;6.80;;;11.90;87.60;;;;;;5096695;28;20042;-76
2023/03/23 00:18:55;;;;;;;9.50;6.78;;;11.90;87.50;;;;;;5096986;28;20479;-76
2023/03/23 00:21:33;;;;;;;11.70;6.82;;;11.90;87.50;;;;;;5080434;28;20043;-76
2023/03/23 00:24:06;;;;;;;9.65;6.25;;;11.90;87.40;;;;;;5080089;28;20036;-77
2023/03/23 00:26:33;;;;;;;8.52;6.40;;;11.90;87.40;;;;;;5095379;28;20043;-77
2023/03/23 00:29:00;;;;;;;7.80;6.18;;;11.90;87.30;;;;;;5093532;27;20081;-76
2023/03/23 00:31:31;;;;;;;10.38;5.97;;;11.90;87.30;;;;;;5083085;27;20073;-77
2023/03/23 00:33:58;;;;;;;12.50;5.70;;;11.90;87.20;;;;;;5099849;27;20039;-76
2023/03/23 00:36:24;;;;;;;9.23;6.55;;;11.90;87.10;;;;;;5098128;28;20176;-76
2023/03/23 00:38:50;;;;;;;10.15;6.07;;;11.90;87.10;;;;;;5079529;28;20044;-76
2023/03/23 00:41:15;;;;;;;8.32;5.20;;;11.90;87.00;;;;;;5130260;27;20104;-76
2023/03/23 00:43:41;;;;;;;9.32;5.07;;;11.90;87.00;;;;;;5130814;27;20050;-76
2023/03/23 00:46:09;;;;;;;11.07;5.70;;;11.90;87.00;;;;;;5114368;27;20032;-76
2023/03/23 00:48:44;;;;;;;9.13;5.18;;;11.90;86.90;;;;;;5124066;27;20043;-77
2023/03/23 00:51:11;;;;;;;9.52;5.03;;;11.90;86.90;;;;;;5100017;27;20043;-77
2023/03/23 00:53:40;;;;;;;9.15;5.05;;;11.90;87.00;;;;;;5087516;28;20036;-76
2023/03/23 00:56:07;;;;;;;7.88;4.80;;;11.90;86.90;;;;;;5097060;28;20053;-77
2023/03/23 00:58:33;;;;;;;6.63;4.85;;;11.90;86.80;;;;;;5093164;27;20039;-77
2023/03/23 01:00:59;;;;;;;8.43;5.30;;;11.90;86.70;;;;;;5083307;27;20031;-76
2023/03/23 01:03:25;;;;;;;7.78;5.00;;;11.90;86.60;;;;;;5089262;28;20031;-77
2023/03/23 01:05:52;;;;;;;7.18;4.95;;;11.90;86.60;;;;;;5113121;28;20040;-76
2023/03/23 01:08:18;;;;;;;7.70;5.07;;;11.90;86.50;;;;;;5063629;28;20085;-76
2023/03/23 01:10:45;;;;;;;9.40;5.40;;;11.90;86.40;;;;;;5048941;28;20052;-77
2023/03/23 01:13:12;;;;;;;7.80;5.30;;;11.90;86.40;;;;;;5058923;28;20080;-76
2023/03/23 01:15:38;;;;;;;8.02;4.93;;;11.90;86.30;;;;;;5059219;28;20056;-76
2023/03/23 01:18:04;;;;;;;9.18;5.25;;;11.90;86.20;;;;;;5070791;27;20039;-76
2023/03/23 01:20:31;;;;;;;7.10;4.50;;;11.90;86.10;;;;;;5096912;28;20410;-77
2023/03/23 01:23:00;;;;;;;6.95;4.43;;;11.90;86.00;;;;;;5095754;28;20050;-76
2023/03/23 01:25:30;;;;;;;8.38;4.60;;;11.90;85.90;;;;;;5078825;28;20058;-76
2023/03/23 01:27:55;;;;;;;11.07;4.85;;;11.90;85.90;;;;;;5079097;28;20043;-76
2023/03/23 01:30:22;;;;;;;7.53;4.60;;;11.90;85.80;;;;;;5095377;28;20158;-76
2023/03/23 01:32:47;;;;;;;7.25;4.28;;;11.90;85.80;;;;;;5078628;28;20044;-76
2023/03/23 01:35:13;;;;;;;8.23;4.47;;;11.90;85.70;;;;;;5078781;28;20043;-76
2023/03/23 01:37:39;;;;;;;6.07;4.18;;;11.90;85.70;;;;;;5082596;27;20039;-76
2023/03/23 01:40:06;;;;;;;8.35;4.20;;;11.90;85.70;;;;;;5083152;28;20032;-77
2023/03/23 01:42:35;;;;;;;10.05;5.00;;;11.90;85.60;;;;;;5078725;28;20067;-77
2023/03/23 01:45:19;;;;;;;7.55;4.10;;;11.90;85.60;;;;;;5096422;28;20039;-77
2023/03/23 01:47:52;;;;;;;6.55;4.85;;;11.90;85.40;;;;;;5078037;28;20047;-76
2023/03/23 01:50:22;;;;;;;6.25;4.32;;;11.90;85.90;;;;;;5094991;28;20047;-76
2023/03/23 01:52:51;;;;;;;9.68;4.55;;;11.90;85.50;;;;;;5078677;28;20042;-76
2023/03/23 01:55:17;;;;;;;8.77;4.88;;;11.80;85.40;;;;;;5109019;28;20666;-76
2023/03/23 01:57:43;;;;;;;8.23;4.35;;;11.90;85.40;;;;;;5103079;28;20047;-76
2023/03/23 02:00:15;;;;;;;7.35;4.13;;;11.90;85.30;;;;;;5078606;28;20032;-77
2023/03/23 02:02:47;;;;;;;6.43;4.50;;;11.90;85.30;;;;;;5062616;28;20383;-76
2023/03/23 02:05:43;;;;;;;6.57;3.92;;;11.90;85.20;;;;;;5078562;28;20348;-77
2023/03/23 02:08:10;;;;;;;9.57;4.40;;;11.90;84.80;;;;;;5061441;28;20395;-76
2023/03/23 02:10:37;;;;;;;7.68;3.90;;;11.90;85.00;;;;;;5078572;28;20085;-77
2023/03/23 02:13:05;;;;;;;9.48;4.70;;;11.90;85.00;;;;;;5129101;28;20100;-76
2023/03/23 02:15:51;;;;;;;10.18;4.75;;;11.90;84.90;;;;;;5081941;28;20066;-77
2023/03/23 02:18:38;;;;;;;7.13;3.95;;;11.90;84.70;;;;;;5078161;28;20054;-77
2023/03/23 02:21:36;;;;;;;7.57;3.90;;;11.90;84.50;;;;;;5078204;28;20123;-77
2023/03/23 02:24:30;;;;;;;8.35;4.03;;;11.90;84.50;;;;;;5095079;28;20043;-76
2023/03/23 02:27:01;;;;;;;6.10;3.50;;;11.90;84.50;;;;;;5078123;28;20044;-77
2023/03/23 02:29:35;;;;;;;6.80;3.45;;;11.80;84.50;;;;;;5078314;28;20483;-76
2023/03/23 02:32:21;;;;;;;5.85;3.40;;;11.90;84.40;;;;;;5118365;28;20048;-76
2023/03/23 02:35:19;;;;;;;5.35;3.40;;;11.90;84.30;;;;;;5103654;28;20088;-77
2023/03/23 02:38:16;;;;;;;6.45;3.45;;;11.80;84.40;;;;;;5054104;28;20046;-77
2023/03/23 02:40:46;;;;;;;7.43;4.03;;;11.80;84.10;;;;;;5061861;28;20504;-77
2023/03/23 02:43:18;;;;;;;5.40;2.92;;;11.80;84.30;;;;;;5094918;28;20043;-77
2023/03/23 02:45:45;;;;;;;5.30;3.15;;;11.80;84.20;;;;;;5101658;28;20380;-77
2023/03/23 02:48:14;;;;;;;5.97;3.28;;;11.80;84.20;;;;;;5079548;28;20071;-77
2023/03/23 02:50:44;;;;;;;6.10;3.15;;;11.80;84.20;;;;;;5080598;28;20126;-77
2023/03/23 02:53:12;;;;;;;6.05;3.70;;;11.80;84.10;;;;;;5098688;28;20039;-76
2023/03/23 02:55:41;;;;;;;5.35;2.90;;;11.80;84.00;;;;;;5114058;27;20035;-77
2023/03/23 02:58:08;;;;;;;6.32;3.35;;;11.80;83.90;;;;;;5118998;27;20051;-77
2023/03/23 03:00:34;;;;;;;5.05;2.78;;;11.80;83.90;;;;;;5088621;28;20039;-77
2023/03/23 03:03:02;;;;;;;5.22;2.88;;;11.90;83.90;;;;;;5098760;28;20062;-77
2023/03/23 03:05:34;;;;;;;5.45;2.95;;;11.90;83.70;;;;;;5081526;28;20040;-77
2023/03/23 03:08:22;;;;;;;5.45;3.08;;;11.80;83.50;;;;;;5081319;28;20075;-77
2023/03/23 03:11:11;;;;;;;7.57;2.92;;;11.80;83.30;;;;;;5098580;28;20383;-77
2023/03/23 03:13:40;;;;;;;4.85;3.08;;;11.90;83.50;;;;;;5099366;27;20039;-77
2023/03/23 03:16:12;;;;;;;4.55;2.55;;;11.80;83.40;;;;;;5100597;27;20043;-77
2023/03/23 03:19:16;;;;;;;6.38;2.70;;;11.80;83.30;;;;;;5080745;28;20043;-77
2023/03/23 03:21:44;;;;;;;4.45;2.83;;;11.90;83.20;;;;;;5086006;28;20109;-77
2023/03/23 03:24:13;;;;;;;5.97;2.60;;;11.80;83.30;;;;;;5098888;28;20031;-76
2023/03/23 03:26:45;;;;;;;6.45;2.80;;;11.80;83.30;;;;;;5080915;28;20081;-77
2023/03/23 03:29:11;;;;;;;5.93;3.50;;;11.80;83.30;;;;;;5116122;27;20078;-77
2023/03/23 03:31:40;;;;;;;5.97;3.28;;;11.90;83.50;;;;;;5101415;27;20031;-77
2023/03/23 03:34:06;;;;;;;4.93;2.70;;;11.90;83.70;;;;;;5111355;27;20087;-77
2023/03/23 03:36:36;;;;;;;4.90;2.90;;;11.80;83.70;;;;;;5118216;27;20039;-77
2023/03/23 03:39:08;;;;;;;5.70;3.35;;;11.80;83.70;;;;;;5101205;27;20406;-77
2023/03/23 03:41:37;;;;;;;7.43;3.58;;;11.90;83.80;;;;;;5117933;27;20051;-76
2023/03/23 03:44:05;;;;;;;5.82;3.17;;;11.90;83.80;;;;;;5097931;27;20031;-77
2023/03/23 03:46:31;;;;;;;8.25;3.45;;;11.80;83.70;;;;;;5090184;28;20123;-77
2023/03/23 03:48:58;;;;;;;4.97;3.22;;;11.80;83.80;;;;;;5080928;28;20039;-77
2023/03/23 03:51:25;;;;;;;5.97;3.50;;;11.90;83.90;;;;;;5080710;28;20035;-77
2023/03/23 03:53:51;;;;;;;6.65;3.22;;;11.80;83.80;;;;;;5099847;27;20039;-77
2023/03/23 03:56:17;;;;;;;7.45;3.50;;;11.90;83.80;;;;;;5084003;27;20100;-77
2023/03/23 03:58:43;;;;;;;6.57;3.50;;;11.90;83.80;;;;;;5074579;28;20039;-77
2023/03/23 04:01:10;;;;;;;6.68;3.45;;;11.80;83.70;;;;;;5096924;28;20035;-77
2023/03/23 04:03:36;;;;;;;5.78;3.22;;;11.90;83.80;;;;;;5080237;28;20119;-77
2023/03/23 04:06:02;;;;;;;6.05;3.60;;;11.90;83.80;;;;;;5097361;28;20051;-77
2023/03/23 04:08:29;;;;;;;5.10;3.25;;;11.90;83.80;;;;;;5080329;28;20040;-77
2023/03/23 04:10:55;;;;;;;6.18;3.42;;;11.90;83.70;;;;;;5080332;28;20378;-77
2023/03/23 04:13:21;;;;;;;8.63;3.75;;;11.90;83.80;;;;;;5132372;27;20040;-77
2023/03/23 04:15:47;;;;;;;8.98;3.95;;;11.90;83.80;;;;;;5084030;27;20107;-77
2023/03/23 04:18:14;;;;;;;6.13;4.00;;;11.90;83.90;;;;;;5117131;27;20125;-77
2023/03/23 04:20:47;;;;;;;7.95;4.50;;;11.90;84.40;;;;;;5100507;27;20035;-76
2023/03/23 04:23:21;;;;;;;8.43;3.92;;;11.90;84.00;;;;;;5097080;27;20093;-77
2023/03/23 04:25:48;;;;;;;;;;;11.90;84.10;;;;;;5060338;28;20029;-77
2023/03/23 04:28:16;;;;;;;7.30;3.53;;;11.90;84.10;;;;;;5059999;28;20329;-76
2023/03/23 04:30:42;;;;;;;7.65;3.70;;;11.80;84.30;;;;;;5059737;28;20127;-77
2023/03/23 04:33:14;;;;;;;11.32;4.22;;;11.80;84.40;;;;;;5076548;28;20044;-77
2023/03/23 04:35:40;;;;;;;11.13;4.25;;;11.80;84.60;;;;;;5084257;27;20525;-77
2023/03/23 04:38:07;;;;;;;5.57;2.90;;;11.80;84.80;;;;;;5091832;28;20075;-76
2023/03/23 04:40:36;;;;;;;6.35;3.00;;;11.80;85.00;;;;;;5079852;28;20039;-76
2023/03/23 04:43:05;;;;;;;5.22;1.45;;;11.80;84.60;;;;;;5079631;28;20044;-76
2023/03/23 04:45:33;;;;;;;4.88;1.98;;;11.80;83.90;;;;;;5079675;28;20043;-77
2023/03/23 04:47:58;;;;;;;4.68;1.23;;;11.60;83.80;;;;;;5096632;28;20452;-77
2023/03/23 04:50:30;;;;;;;5.55;1.30;;;11.60;83.20;;;;;;5130468;27;20040;-77
2023/03/23 04:52:57;;;;;;;4.68;1.88;;;11.60;83.10;;;;;;5079690;28;20035;-77
2023/03/23 04:55:24;;;;;;;5.95;1.98;;;11.50;83.10;;;;;;5096910;27;20043;-77
2023/03/23 04:57:50;;;;;;;7.45;1.92;;;11.50;83.30;;;;;;5093166;28;20035;-77
2023/03/23 05:00:16;;;;;;;9.32;2.22;;;11.40;83.50;;;;;;5046340;28;20046;-76
2023/03/23 05:02:44;;;;;;;8.40;1.88;;;11.40;83.80;;;;;;5096384;28;20037;-77
2023/03/23 05:05:12;;;;;;;5.88;1.98;;;11.40;84.00;;;;;;5081800;28;20613;-77
2023/03/23 05:07:38;;;;;;;6.35;1.95;;;11.30;84.30;;;;;;5075964;28;20124;-77
2023/03/23 05:10:06;;;;;;;7.13;2.30;;;11.30;84.40;;;;;;5058970;28;20487;-77
2023/03/23 05:12:31;;;;;;;11.35;2.22;;;11.30;84.70;;;;;;5096972;28;20040;-77
2023/03/23 05:14:57;;;;;;;8.95;3.13;;;11.30;84.80;;;;;;5075665;28;20036;-77
2023/03/23 05:17:23;;;;;;;12.65;3.45;;;11.30;85.00;;;;;;5087870;27;20039;-76
2023/03/23 05:19:50;;;;;;;11.32;3.08;;;11.30;85.10;;;;;;5095746;28;20055;-77
2023/03/23 05:22:16;;;;;;;13.18;3.30;;;11.30;85.20;;;;;;5070358;27;20130;-77
2023/03/23 05:24:42;;;;;;;6.68;2.50;;;11.20;85.20;;;;;;5082372;27;20117;-77
2023/03/23 05:27:09;;;;;;;12.27;2.30;;;11.20;85.20;;;;;;5116155;27;20042;-77
2023/03/23 05:29:36;;;;;;;10.93;2.08;;;11.30;85.40;;;;;;5099282;27;20068;-77
2023/03/23 05:32:07;;;;;;;8.73;2.13;;;11.20;85.20;;;;;;5092526;28;20040;-77
2023/03/23 05:34:36;;;;;;;8.95;1.85;;;11.20;85.10;;;;;;5079989;28;20048;-77
2023/03/23 05:37:03;;;;;;;10.07;2.38;;;11.20;85.00;;;;;;5079352;28;20085;-76
2023/03/23 05:39:30;;;;;;;9.23;1.73;;;11.20;85.00;;;;;;5078633;28;20048;-78
2023/03/23 05:41:56;;;;;;;8.93;2.42;;;11.20;85.10;;;;;;5095532;28;20048;-77
2023/03/23 05:44:22;;;;;;;8.18;2.70;;;11.20;85.30;;;;;;5089155;28;20043;-77
2023/03/23 05:46:48;;;;;;;10.30;2.83;;;11.20;85.40;;;;;;5129052;27;20123;-77
2023/03/23 05:49:18;;;;;;;13.18;3.20;;;11.20;85.50;;;;;;5122417;27;20040;-77
2023/03/23 05:51:45;;;;;;;10.57;2.30;;;11.20;85.50;;;;;;5082017;28;20048;-77
2023/03/23 05:54:12;;;;;;;11.15;2.40;;;11.20;85.60;;;;;;5096880;28;20089;-77
2023/03/23 05:56:38;;;;;;;8.85;3.33;;;11.20;85.60;;;;;;5093814;28;20031;-77
2023/03/23 05:59:03;;;;;;;8.13;2.50;;;11.20;85.60;;;;;;5095526;28;20088;-77
2023/03/23 06:01:29;;;;;;;6.43;2.03;;;11.10;85.60;;;;;;5078504;28;20510;-77
2023/03/23 06:03:58;;;;;;;10.90;2.42;;;11.10;85.50;;;;;;5127005;28;20059;-77
2023/03/23 06:06:29;;;;;;;9.55;2.60;;;11.10;85.50;;;;;;5082712;28;20409;-77
2023/03/23 06:08:55;;;;;;;9.82;1.98;;;11.10;85.50;;;;;;5098883;28;20043;-77
2023/03/23 06:11:21;;;;;;;9.70;2.40;;;11.10;85.50;;;;;;5098630;28;20099;-77
2023/03/23 06:13:47;;;;;;;12.57;2.88;;;11.10;85.50;;;;;;5091015;28;20046;-77
2023/03/23 06:16:14;;;;;;;8.30;2.35;;;11.10;85.50;;;;;;5093050;28;20560;-77
2023/03/23 06:18:40;;;;;;;10.55;2.50;;;11.10;85.50;;;;;;5075047;28;20105;-77
2023/03/23 06:21:07;;;;;;;12.65;2.88;;;11.10;85.50;;;;;;5058882;28;20475;-78
2023/03/23 06:23:34;;;;;;;12.25;2.95;;;11.10;85.50;;;;;;5075169;28;20549;-77
2023/03/23 06:26:05;;;;;;;14.77;3.78;;;11.10;85.50;;;;;;5095031;28;20063;-76
2023/03/23 06:28:31;;;;;;;15.32;5.00;;;11.10;85.40;;;;;;5082343;28;20050;-77
2023/03/23 06:31:01;;;;;;;14.00;3.65;;;11.10;85.40;;;;;;5099124;28;20043;-77
2023/03/23 06:33:27;;;;;;;12.38;3.90;;;11.10;85.40;;;;;;5102491;27;20096;-77
2023/03/23 06:35:53;;;;;;;16.10;4.25;;;11.10;85.40;;;;;;5066528;28;20376;-77
2023/03/23 06:38:19;;;;;;;20.23;3.88;;;11.10;85.40;;;;;;5095650;28;20082;-77
2023/03/23 06:40:46;;;;;;;19.38;3.75;;;11.10;85.40;;;;;;5060777;28;20063;-77
2023/03/23 06:43:13;;;;;;;16.33;3.80;;;11.10;85.30;;;;;;5054114;27;20378;-77
2023/03/23 06:45:39;;;;;;;13.20;3.50;;;11.10;85.40;;;;;;5085211;27;20039;-77
2023/03/23 06:48:05;;;;;;;19.10;3.92;;;11.10;85.40;;;;;;5083816;27;20035;-77
2023/03/23 06:50:31;;;;;;;14.88;3.97;;;11.10;85.40;;;;;;5085366;27;20078;-77
2023/03/23 06:52:57;;;;;;;15.23;3.40;;;11.10;85.30;;;;;;5095606;28;20046;-77
2023/03/23 06:55:23;;;;;;;19.02;4.07;;;11.10;85.20;;;;;;5081344;28;20040;-77
2023/03/23 06:57:48;;;;;;;16.88;3.33;;;11.10;85.20;;;;;;5095828;27;20039;-78
2023/03/23 07:00:15;;;;;;;13.85;3.70;;;11.20;85.20;;;;;;5101704;27;20027;-77
2023/03/23 07:02:41;;;;;;;23.20;3.83;;;11.20;85.10;;;;;;5118990;27;20494;-77
2023/03/23 07:05:11;;;;;;;15.43;4.13;;;11.20;85.00;;;;;;5086650;28;20569;-77
2023/03/23 07:07:40;;;;;;;20.27;4.22;;;11.20;85.00;;;;;;5081232;28;20039;-77
2023/03/23 07:10:11;;;;;;;15.63;4.35;;;11.20;85.00;;;;;;5082841;28;20497;-77
2023/03/23 07:12:37;;;;;;;21.33;4.28;;;11.20;84.90;;;;;;5090269;27;20093;-77
2023/03/23 07:15:04;;;;;;;22.88;5.10;;;11.30;84.80;;;;;;5094362;27;20050;-77
2023/03/23 07:17:30;;;;;;;16.10;4.18;;;11.30;84.80;;;;;;5064857;28;20040;-77
2023/03/23 07:19:56;;;;;;;15.10;3.80;;;11.30;84.70;;;;;;5081067;28;20043;-77
2023/03/23 07:22:21;;;;;;;18.17;4.20;;;11.30;84.60;;;;;;5064803;28;20044;-77
2023/03/23 07:24:47;;;;;;;18.63;3.30;;;11.30;84.60;;;;;;5081203;28;20038;-78
2023/03/23 07:27:13;;;;;;;11.85;3.25;;;11.30;84.60;;;;;;5068101;27;20024;-77
2023/03/23 07:29:39;;;;;;;18.17;4.60;;;11.40;84.50;;;;;;5099753;27;20500;-77
2023/03/23 07:32:10;;;;;;;19.67;3.88;;;11.40;84.30;;;;;;5060990;28;20047;-77
2023/03/23 07:34:37;;;;;;;21.85;4.30;;;11.50;84.20;;;;;;5074669;28;20045;-78
2023/03/23 07:37:03;;;;;;;17.83;4.47;;;11.50;84.00;;;;;;5080280;28;20044;-77
2023/03/23 07:39:29;;;;;;;21.90;4.97;;;11.50;83.90;;;;;;5098416;28;20078;-76
2023/03/23 07:41:55;;;;;;;19.80;3.85;;;11.50;83.90;;;;;;5098378;28;20047;-77
2023/03/23 07:44:21;;;;;;;21.42;4.78;;;11.60;83.80;;;;;;5098150;28;20483;-77
2023/03/23 07:46:47;;;;;;;26.27;4.85;;;11.60;83.90;;;;;;5097327;28;20483;-77
2023/03/23 07:49:13;;;;;;;18.70;4.57;;;11.60;83.90;;;;;;5064427;28;20046;-78
2023/03/23 07:51:39;;;;;;;22.15;5.00;;;11.70;83.90;;;;;;5097920;28;20539;-78
2023/03/23 07:54:07;;;;;;;17.65;3.78;;;11.70;83.90;;;;;;5080642;28;20038;-77
2023/03/23 07:56:35;;;;;;;24.90;5.55;;;11.70;83.80;;;;;;5090050;28;20156;-78
2023/03/23 07:59:02;;;;;;;18.63;5.07;;;11.80;83.70;;;;;;5060514;28;20428;-79
2023/03/23 08:01:28;;;;;;;21.27;4.63;;;11.80;83.60;;;;;;5076944;28;20039;-78
2023/03/23 08:03:57;;;;;;;20.20;4.63;;;11.80;83.50;;;;;;5060389;28;20067;-78
2023/03/23 08:06:26;;;;;;;16.67;4.03;;;11.80;83.40;;;;;;5076575;28;20046;-78
2023/03/23 08:08:52;;;;;;;23.83;4.78;;;11.80;83.20;;;;;;5080481;28;20044;-78
2023/03/23 08:11:18;;;;;;;21.40;4.78;;;11.90;83.10;;;;;;5096894;28;20085;-78
2023/03/23 08:13:45;;;;;;;20.80;4.72;;;11.90;83.10;;;;;;5097136;28;20074;-78
2023/03/23 08:16:11;;;;;;;17.13;4.03;;;11.90;82.90;;;;;;5080666;28;20035;-75
2023/03/23 08:18:39;;;;;;;21.45;5.00;;;11.90;82.90;;;;;;5097150;28;20505;-75
2023/03/23 08:21:05;;;;;;;19.73;4.72;;;11.90;82.90;;;;;;5080401;28;20566;-75
2023/03/23 08:23:32;;;;;;;21.67;4.78;;;12.00;83.00;;;;;;5078339;28;20051;-76
2023/03/23 08:25:59;;;;;;;24.67;4.78;;;12.00;83.00;;;;;;5063491;28;20036;-75
2023/03/23 08:28:25;;;;;;;20.15;4.63;;;12.00;82.90;;;;;;5092224;28;20111;-76
2023/03/23 08:30:50;;;;;;;22.30;4.47;;;12.00;82.90;;;;;;5079003;28;20119;-76
2023/03/23 08:33:17;;;;;;;19.90;3.85;;;12.00;82.80;;;;;;5113623;28;20172;-76
2023/03/23 08:35:43;;;;;;;18.88;4.72;;;12.10;82.70;;;;;;5079747;28;20046;-76
2023/03/23 08:38:11;;;;;;;21.95;4.63;;;12.10;82.70;;;;;;5079568;28;20040;-77
2023/03/23 08:40:37;;;;;;;19.25;4.47;;;12.10;82.70;;;;;;5079737;28;20043;-78
2023/03/23 08:43:04;;;;;;;18.80;4.43;;;12.10;82.70;;;;;;5063600;28;20066;-77
2023/03/23 08:45:30;;;;;;;21.25;4.43;;;12.20;82.60;;;;;;5063320;28;20035;-77
2023/03/23 08:47:56;;;;;;;23.60;5.57;;;12.20;82.40;;;;;;5095804;28;20043;-77
2023/03/23 08:50:27;;;;;;;22.65;4.65;;;12.30;82.00;;;;;;5062558;28;20054;-77
2023/03/23 08:52:54;;;;;;;22.33;4.82;;;12.30;81.40;;;;;;5096561;28;20027;-77
2023/03/23 08:55:21;;;;;;;22.38;5.50;;;12.30;81.20;;;;;;5112835;28;20036;-77
2023/03/23 08:57:48;;;;;;;17.38;4.45;;;12.30;80.90;;;;;;5095612;28;20084;-77
2023/03/23 09:00:17;;;;;;;22.85;4.70;;;12.30;80.90;;;;;;5078879;28;20483;-77
2023/03/23 09:02:45;;;;;;;21.00;5.45;;;12.30;81.10;;;;;;5130024;27;20036;-77
2023/03/23 09:05:11;;;;;;;20.40;5.07;;;12.30;81.60;;;;;;5096084;28;20043;-77
2023/03/23 09:07:39;;;;;;;17.85;4.57;;;12.40;81.90;;;;;;5096306;28;20040;-77
2023/03/23 09:10:05;;;;;;;22.67;4.82;;;12.50;81.80;;;;;;5079365;28;20043;-77
2023/03/23 09:12:31;;;;;;;16.88;4.28;;;12.60;81.50;;;;;;5079390;28;20047;-78
2023/03/23 09:14:57;;;;;;;18.70;4.13;;;12.60;81.00;;;;;;5096296;28;20046;-77
2023/03/23 09:17:23;;;;;;;20.30;4.80;;;12.70;80.70;;;;;;5112739;27;20047;-77
2023/03/23 09:19:48;;;;;;;20.20;4.18;;;12.70;80.50;;;;;;5112873;28;20084;-77
2023/03/23 09:22:19;;;;;;;23.88;6.05;;;12.80;80.40;;;;;;5113057;28;20035;-77
2023/03/23 09:24:46;;;;;;;19.95;4.82;;;12.80;80.10;;;;;;5096149;28;20413;-77
2023/03/23 09:27:11;;;;;;;18.73;4.70;;;12.90;80.00;;;;;;5096117;28;20510;-78
2023/03/23 09:29:38;;;;;;;20.67;4.93;;;12.90;79.40;;;;;;5078800;28;20035;-77
2023/03/23 09:32:04;;;;;;;24.52;4.75;;;13.00;79.20;;;;;;5095701;28;20039;-77
2023/03/23 09:34:29;;;;;;;21.02;4.38;;;13.10;79.20;;;;;;5097292;28;20124;-77
2023/03/23 09:36:55;;;;;;;19.63;4.78;;;13.20;79.00;;;;;;5075691;28;20043;-77
2023/03/23 09:39:21;;;;;;;21.38;5.15;;;13.20;78.70;;;;;;5092236;28;20510;-78
2023/03/23 09:42:01;;;;;;;19.48;4.35;;;13.40;79.20;;;;;;5075339;28;20048;-78
2023/03/23 09:44:33;;;;;;;21.77;4.20;;;13.40;79.20;;;;;;5092058;28;20044;-77
2023/03/23 09:47:23;;;;;;;16.10;4.07;;;13.60;77.50;;;;;;5082455;28;20089;-77
2023/03/23 09:49:57;;;;;;;18.58;4.65;;;13.60;76.70;;;;;;5095317;28;20039;-78
2023/03/23 09:52:27;;;;;;;;;;;13.70;76.00;;;;;;5096126;28;20040;-78
2023/03/23 09:54:55;;;;;;;16.55;3.50;;;13.70;75.20;;;;;;5078588;28;20012;-78
2023/03/23 09:57:35;;;;;;;14.98;3.58;;;13.70;76.00;;;;;;5078512;28;20131;-78
2023/03/23 10:00:07;;;;;;;16.83;3.42;;;13.80;75.80;;;;;;5078462;28;20031;-77
2023/03/23 10:02:39;;;;;;;20.23;5.13;;;13.90;75.90;;;;;;5095623;28;20038;-77
2023/03/23 10:05:35;;;;;;;17.63;4.32;;;14.10;75.70;;;;;;5078747;28;20458;-77
2023/03/23 10:08:05;;;;;;;17.25;3.55;;;14.30;75.50;;;;;;5086926;28;20063;-77
2023/03/23 10:11:09;;;;;;;15.18;3.85;;;14.40;75.40;;;;;;5095657;28;20040;-77
2023/03/23 10:13:40;;;;;;;12.65;3.58;;;14.60;74.00;;;;;;5095306;28;20050;-78
2023/03/23 10:16:11;;;;;;;12.48;2.70;;;14.70;72.50;;;;;;5078690;28;20420;-78
2023/03/23 10:18:41;;;;;;;11.63;3.10;;;14.80;72.10;;;;;;5078245;28;20509;-77
2023/03/23 10:21:13;;;;;;;14.00;3.08;;;15.00;71.90;;;;;;5078390;28;20071;-78
2023/03/23 10:23:54;;;;;;;11.60;3.10;;;15.10;70.70;;;;;;5078318;28;20036;-78
2023/03/23 10:26:32;;;;;;;11.63;3.03;;;15.20;69.60;;;;;;5095269;28;20038;-78
2023/03/23 10:29:13;;;;;;;11.85;3.10;;;15.30;69.10;;;;;;5078323;28;20217;-77
2023/03/23 10:31:48;;;;;;;9.50;2.95;;;15.40;67.20;;;;;;5079700;28;20386;-78
2023/03/23 10:34:41;;;;;;;10.88;2.40;;;15.50;67.00;;;;;;5081282;28;20032;-77
2023/03/23 10:37:15;;;;;;;9.82;2.97;;;15.50;66.50;;;;;;5058831;28;20052;-77
2023/03/23 10:39:50;;;;;;;10.57;3.10;;;15.50;66.10;;;;;;5079745;28;20063;-78
2023/03/23 10:42:37;;;;;;;11.55;2.97;;;15.60;65.40;;;;;;5095155;28;20047;-77
2023/03/23 10:45:22;;;;;;;12.15;3.28;;;15.70;65.40;;;;;;5078108;28;20128;-77
2023/03/23 10:48:20;;;;;;;13.73;3.53;;;15.70;64.40;;;;;;5077983;28;20040;-77
2023/03/23 10:50:57;;;;;;;9.65;2.60;;;15.80;64.70;;;;;;5094707;28;20039;-77
2023/03/23 10:53:37;;;;;;;11.23;3.03;;;15.80;64.40;;;;;;5077889;28;20070;-77
2023/03/23 10:56:04;;;;;;;9.18;2.65;;;15.80;63.80;;;;;;5078131;28;20042;-77
2023/03/23 10:58:33;;;;;;;11.82;3.40;;;15.80;63.40;;;;;;5094771;28;20082;-78
2023/03/23 11:01:01;;;;;;;12.65;3.17;;;15.90;62.20;;;;;;5078008;28;20039;-77
2023/03/23 11:03:32;;;;;;;11.18;3.45;;;15.80;61.20;;;;;;5061530;28;20421;-77
2023/03/23 11:06:04;;;;;;;14.70;3.47;;;15.80;61.20;;;;;;5095064;28;20031;-78
2023/03/23 11:08:35;;;;;;;16.20;3.13;;;15.70;60.90;;;;;;5094582;28;20108;-77
2023/03/23 11:11:24;;;;;;;11.02;2.80;;;15.70;61.30;;;;;;5096173;28;20043;-77
2023/03/23 11:14:00;;;;;;;13.68;2.95;;;15.70;61.80;;;;;;5098543;28;20040;-77
2023/03/23 11:16:27;;;;;;;10.98;2.95;;;15.70;62.00;;;;;;5098448;28;20042;-77
2023/03/23 11:18:54;;;;;;;11.18;3.22;;;15.60;62.10;;;;;;5081300;28;20082;-77
2023/03/23 11:21:22;;;;;;;11.35;3.10;;;15.60;61.70;;;;;;5098400;28;20136;-77
2023/03/23 11:23:58;;;;;;;10.35;3.88;;;15.50;61.70;;;;;;5080914;28;20039;-78
2023/03/23 11:26:28;;;;;;;12.68;2.90;;;15.60;62.80;;;;;;5098114;28;20039;-77
2023/03/23 11:29:02;;;;;;;11.15;2.83;;;15.60;62.90;;;;;;5098120;28;20097;-77
2023/03/23 11:31:36;;;;;;;13.57;2.97;;;15.60;62.10;;;;;;5081030;28;20085;-78
2023/03/23 11:34:16;;;;;;;10.65;2.92;;;15.60;62.70;;;;;;5098307;28;20402;-77
2023/03/23 11:36:57;;;;;;;15.55;3.95;;;15.60;63.60;;;;;;5080970;28;20048;-77
2023/03/23 11:39:46;;;;;;;13.70;3.65;;;15.60;64.10;;;;;;5080817;28;20487;-77
2023/03/23 11:42:18;;;;;;;8.50;3.00;;;15.70;62.80;;;;;;5081101;28;20372;-77
2023/03/23 11:44:45;;;;;;;9.80;2.50;;;15.80;62.70;;;;;;5097744;28;20039;-77
2023/03/23 11:47:32;;;;;;;10.82;3.33;;;15.70;61.50;;;;;;5080657;28;20119;-77
2023/03/23 11:50:22;;;;;;;13.05;3.53;;;15.80;60.90;;;;;;5097859;28;20107;-77
2023/03/23 11:52:56;;;;;;;10.48;3.15;;;15.80;61.30;;;;;;5080644;28;20037;-78
2023/03/23 11:55:30;;;;;;;11.57;3.17;;;15.80;61.70;;;;;;5097841;28;20075;-77
2023/03/23 11:58:00;;;;;;;10.02;2.70;;;15.80;61.20;;;;;;5080412;28;20043;-78
2023/03/23 12:00:27;;;;;;;12.60;3.67;;;15.80;61.90;;;;;;5080899;28;20061;-77
2023/03/23 12:03:30;;;;;;;12.18;3.00;;;15.70;61.70;;;;;;5080466;28;20043;-77
2023/03/23 12:06:06;;;;;;;12.95;3.47;;;15.70;60.90;;;;;;5080464;28;20039;-77
2023/03/23 12:08:50;;;;;;;15.52;3.30;;;15.60;59.80;;;;;;5080351;28;20039;-77
2023/03/23 12:11:44;;;;;;;13.60;3.20;;;15.60;60.90;;;;;;5097282;28;20096;-77
2023/03/23 12:14:15;;;;;;;16.02;3.85;;;15.60;61.20;;;;;;5097040;28;20128;-77
2023/03/23 12:17:10;;;;;;;13.55;3.13;;;15.60;60.80;;;;;;5131372;27;20241;-77
2023/03/23 12:19:45;;;;;;;12.52;3.33;;;15.50;61.30;;;;;;5093491;28;20047;-77
2023/03/23 12:22:28;;;;;;;10.77;3.38;;;15.60;62.20;;;;;;5060370;28;20040;-77
2023/03/23 12:25:00;;;;;;;11.27;3.42;;;15.70;61.90;;;;;;5076487;28;20040;-77
2023/03/23 12:27:47;;;;;;;11.75;2.95;;;15.70;61.20;;;;;;5095601;28;20437;-77
2023/03/23 12:30:22;;;;;;;11.27;2.78;;;15.70;61.40;;;;;;5096707;28;20184;-77
2023/03/23 12:33:08;;;;;;;11.50;2.80;;;15.60;62.20;;;;;;5096853;28;20122;-77
2023/03/23 12:35:48;;;;;;;10.68;3.13;;;15.70;61.80;;;;;;5079570;28;20035;-77
2023/03/23 12:38:20;;;;;;;9.73;2.90;;;15.70;62.60;;;;;;5096632;28;20093;-77
2023/03/23 12:41:14;;;;;;;10.82;3.35;;;15.80;62.60;;;;;;5096352;28;20088;-76
2023/03/23 12:44:01;;;;;;;14.32;3.80;;;15.80;62.20;;;;;;5079852;28;20055;-77
2023/03/23 12:46:49;;;;;;;11.40;3.00;;;15.80;61.80;;;;;;5096609;28;20042;-77
2023/03/23 12:49:41;;;;;;;12.93;2.90;;;15.90;63.00;;;;;;5096441;28;20511;-77
2023/03/23 12:52:22;;;;;;;10.93;3.50;;;15.90;62.00;;;;;;5079272;28;20483;-77
2023/03/23 12:54:57;;;;;;;14.07;2.88;;;15.90;61.50;;;;;;5096316;28;20120;-77
2023/03/23 12:57:36;;;;;;;10.90;3.17;;;15.90;61.30;;;;;;5079297;28;20089;-77
2023/03/23 13:00:23;;;;;;;8.38;2.50;;;15.90;61.10;;;;;;5096099;28;20048;-77